aviador You're here:

KCQX Decoded Metar

CHATHAM in MA, USA
Report Time2017-11-20 23:52:00
UTC Time2017-11-21 00:47:24
Flight Rules vfr VFR
Wind250° at 07 Gusting to 15 kt
W.Decomp.*RWY 24: 6.3 kt HW 3.1 kt RCW
W.Rank250° ranks 12
Current wind is above 250° avg. (5.8)
Visibility9999 m
Phenomena:N/A
Clouds:N/A
Expected CloudBase > 3,200 ft AGL from Temp-Dew spread
CeilingNone
Temp04°C (ISA -11)
Dew Point-4°C (56% RH)
AAT-1.0°C
QNH1017 hPa
Density Alt-1,329 ft
Elevation62 ft
Report Wrong Elevation
Raw Report
KCQX 202352Z AUTO 25007G15KT 10SM CLR 04/M04 A3002 RMK AO2 SLP168
T00441044 10067 20028 51013=

Extra information for KCQX:More info

Metar Taf Metar & Taf Last 4 Metars F.Rules Stats Wind Profile Meteogram Temp Stats Airport Information Weather charts Add Link Nearby VenuesMetar ALERT Operation Metar Decoded Social comments

AIRNAV info for KCQX